sensor_id;sensor_type;location;lat;lon;timestamp;temperature;humidity
53152;DHT22;39234;53.158;6.322;2023-07-13T00:00:04;15.40;99.90
53152;DHT22;39234;53.158;6.322;2023-07-13T00:02:34;15.30;99.90
53152;DHT22;39234;53.158;6.322;2023-07-13T00:05:00;15.50;99.90
53152;DHT22;39234;53.158;6.322;2023-07-13T00:07:26;15.60;99.90
53152;DHT22;39234;53.158;6.322;2023-07-13T00:09:52;15.30;99.90
53152;DHT22;39234;53.158;6.322;2023-07-13T00:12:32;15.50;99.90
53152;DHT22;39234;53.158;6.322;2023-07-13T00:15:00;15.50;99.90
53152;DHT22;39234;53.158;6.322;2023-07-13T00:17:27;15.40;99.90
53152;DHT22;39234;53.158;6.322;2023-07-13T00:19:55;15.40;99.90
53152;DHT22;39234;53.158;6.322;2023-07-13T00:22:22;15.50;99.90
53152;DHT22;39234;53.158;6.322;2023-07-13T00:24:49;15.30;99.90
53152;DHT22;39234;53.158;6.322;2023-07-13T00:27:16;15.50;99.90
53152;DHT22;39234;53.158;6.322;2023-07-13T00:29:43;15.40;99.90
53152;DHT22;39234;53.158;6.322;2023-07-13T00:32:10;15.60;99.90
53152;DHT22;39234;53.158;6.322;2023-07-13T00:34:37;15.70;99.90
53152;DHT22;39234;53.158;6.322;2023-07-13T00:37:04;15.40;99.90
53152;DHT22;39234;53.158;6.322;2023-07-13T00:39:35;15.50;99.90
53152;DHT22;39234;53.158;6.322;2023-07-13T00:42:02;15.70;99.90
53152;DHT22;39234;53.158;6.322;2023-07-13T00:44:28;15.50;99.90
53152;DHT22;39234;53.158;6.322;2023-07-13T00:46:54;15.50;99.90
53152;DHT22;39234;53.158;6.322;2023-07-13T00:49:23;15.70;99.90
53152;DHT22;39234;53.158;6.322;2023-07-13T00:51:53;15.50;99.90
53152;DHT22;39234;53.158;6.322;2023-07-13T00:54:41;15.60;99.90
53152;DHT22;39234;53.158;6.322;2023-07-13T00:57:12;15.40;99.90
53152;DHT22;39234;53.158;6.322;2023-07-13T00:59:43;15.50;99.90
53152;DHT22;39234;53.158;6.322;2023-07-13T01:02:10;15.50;99.90
53152;DHT22;39234;53.158;6.322;2023-07-13T01:04:36;15.30;99.90
53152;DHT22;39234;53.158;6.322;2023-07-13T01:07:04;15.20;99.90
53152;DHT22;39234;53.158;6.322;2023-07-13T01:09:31;15.20;99.90
53152;DHT22;39234;53.158;6.322;2023-07-13T01:11:57;15.20;99.90
53152;DHT22;39234;53.158;6.322;2023-07-13T01:14:25;15.00;99.90
53152;DHT22;39234;53.158;6.322;2023-07-13T01:16:51;15.10;99.90
53152;DHT22;39234;53.158;6.322;2023-07-13T01:19:33;15.10;99.90
53152;DHT22;39234;53.158;6.322;2023-07-13T01:22:10;15.40;99.90
53152;DHT22;39234;53.158;6.322;2023-07-13T01:24:39;15.00;99.90
53152;DHT22;39234;53.158;6.322;2023-07-13T01:27:07;17.40;99.90
53152;DHT22;39234;53.158;6.322;2023-07-13T01:29:35;15.40;99.90
53152;DHT22;39234;53.158;6.322;2023-07-13T01:32:12;15.40;99.90
53152;DHT22;39234;53.158;6.322;2023-07-13T01:34:38;15.30;99.90
53152;DHT22;39234;53.158;6.322;2023-07-13T01:37:09;15.50;99.90
53152;DHT22;39234;53.158;6.322;2023-07-13T01:39:35;15.70;99.90
53152;DHT22;39234;53.158;6.322;2023-07-13T01:42:01;15.80;99.90
53152;DHT22;39234;53.158;6.322;2023-07-13T01:44:27;16.00;99.90
53152;DHT22;39234;53.158;6.322;2023-07-13T01:46:52;15.70;99.90
53152;DHT22;39234;53.158;6.322;2023-07-13T01:49:18;15.90;99.90
53152;DHT22;39234;53.158;6.322;2023-07-13T01:51:44;15.70;99.90
53152;DHT22;39234;53.158;6.322;2023-07-13T01:54:10;16.00;99.90
53152;DHT22;39234;53.158;6.322;2023-07-13T01:56:35;15.60;99.90
53152;DHT22;39234;53.158;6.322;2023-07-13T01:59:01;15.70;99.90
53152;DHT22;39234;53.158;6.322;2023-07-13T02:01:27;15.70;99.90
53152;DHT22;39234;53.158;6.322;2023-07-13T02:03:52;15.70;99.90
53152;DHT22;39234;53.158;6.322;2023-07-13T02:06:18;15.50;99.90
53152;DHT22;39234;53.158;6.322;2023-07-13T02:08:44;15.60;99.90
53152;DHT22;39234;53.158;6.322;2023-07-13T02:11:10;15.50;99.90
53152;DHT22;39234;53.158;6.322;2023-07-13T02:13:36;15.50;99.90
53152;DHT22;39234;53.158;6.322;2023-07-13T02:16:02;15.40;99.90
53152;DHT22;39234;53.158;6.322;2023-07-13T02:18:27;15.30;99.90
53152;DHT22;39234;53.158;6.322;2023-07-13T02:20:53;15.40;99.90
53152;DHT22;39234;53.158;6.322;2023-07-13T02:23:19;15.50;99.90
53152;DHT22;39234;53.158;6.322;2023-07-13T02:25:45;15.50;99.90
53152;DHT22;39234;53.158;6.322;2023-07-13T02:28:11;15.40;99.90
53152;DHT22;39234;53.158;6.322;2023-07-13T02:30:37;15.40;99.90
53152;DHT22;39234;53.158;6.322;2023-07-13T02:33:04;15.20;99.90
53152;DHT22;39234;53.158;6.322;2023-07-13T02:35:29;15.20;99.90
53152;DHT22;39234;53.158;6.322;2023-07-13T02:37:55;15.30;99.90
53152;DHT22;39234;53.158;6.322;2023-07-13T02:40:21;15.20;99.90
53152;DHT22;39234;53.158;6.322;2023-07-13T02:42:46;15.00;99.90
53152;DHT22;39234;53.158;6.322;2023-07-13T02:45:12;15.10;99.90
53152;DHT22;39234;53.158;6.322;2023-07-13T02:47:40;15.10;99.90
53152;DHT22;39234;53.158;6.322;2023-07-13T02:50:06;15.00;99.90
53152;DHT22;39234;53.158;6.322;2023-07-13T02:52:32;14.90;99.90
53152;DHT22;39234;53.158;6.322;2023-07-13T02:54:58;15.20;99.90
53152;DHT22;39234;53.158;6.322;2023-07-13T02:57:24;15.00;99.90
53152;DHT22;39234;53.158;6.322;2023-07-13T02:59:49;14.90;99.90
53152;DHT22;39234;53.158;6.322;2023-07-13T03:02:15;14.90;99.90
53152;DHT22;39234;53.158;6.322;2023-07-13T03:04:41;14.80;99.90
53152;DHT22;39234;53.158;6.322;2023-07-13T03:07:07;14.80;99.90
53152;DHT22;39234;53.158;6.322;2023-07-13T03:09:34;14.60;99.90
53152;DHT22;39234;53.158;6.322;2023-07-13T03:12:00;14.60;99.90
53152;DHT22;39234;53.158;6.322;2023-07-13T03:14:26;14.40;99.90
53152;DHT22;39234;53.158;6.322;2023-07-13T03:16:52;14.60;99.90
53152;DHT22;39234;53.158;6.322;2023-07-13T03:19:18;14.50;99.90
53152;DHT22;39234;53.158;6.322;2023-07-13T03:21:44;14.60;99.90
53152;DHT22;39234;53.158;6.322;2023-07-13T03:24:10;14.50;99.90
53152;DHT22;39234;53.158;6.322;2023-07-13T03:26:36;14.50;99.90
53152;DHT22;39234;53.158;6.322;2023-07-13T03:29:02;14.50;99.90
53152;DHT22;39234;53.158;6.322;2023-07-13T03:31:32;14.60;99.90
53152;DHT22;39234;53.158;6.322;2023-07-13T03:33:57;14.60;99.90
53152;DHT22;39234;53.158;6.322;2023-07-13T03:36:26;14.70;99.90
53152;DHT22;39234;53.158;6.322;2023-07-13T03:39:00;14.70;99.90
53152;DHT22;39234;53.158;6.322;2023-07-13T03:41:26;14.60;99.90
53152;DHT22;39234;53.158;6.322;2023-07-13T03:43:52;14.80;99.90
53152;DHT22;39234;53.158;6.322;2023-07-13T03:46:18;14.80;99.90
53152;DHT22;39234;53.158;6.322;2023-07-13T03:48:45;14.60;99.90
53152;DHT22;39234;53.158;6.322;2023-07-13T03:51:13;14.70;99.90
53152;DHT22;39234;53.158;6.322;2023-07-13T03:53:42;14.70;99.90
53152;DHT22;39234;53.158;6.322;2023-07-13T03:56:09;14.80;99.90
53152;DHT22;39234;53.158;6.322;2023-07-13T03:58:39;14.80;99.90
53152;DHT22;39234;53.158;6.322;2023-07-13T04:01:07;14.70;99.90
53152;DHT22;39234;53.158;6.322;2023-07-13T04:03:34;14.60;99.90
53152;DHT22;39234;53.158;6.322;2023-07-13T04:06:05;14.60;99.90
53152;DHT22;39234;53.158;6.322;2023-07-13T04:08:33;14.50;99.90
53152;DHT22;39234;53.158;6.322;2023-07-13T04:11:00;14.70;99.90
53152;DHT22;39234;53.158;6.322;2023-07-13T04:13:26;14.60;99.90
53152;DHT22;39234;53.158;6.322;2023-07-13T04:15:52;14.70;99.90
53152;DHT22;39234;53.158;6.322;2023-07-13T04:18:19;14.80;99.90
53152;DHT22;39234;53.158;6.322;2023-07-13T04:20:49;14.70;99.90
53152;DHT22;39234;53.158;6.322;2023-07-13T04:23:15;14.90;99.90
53152;DHT22;39234;53.158;6.322;2023-07-13T04:25:45;14.70;99.90
53152;DHT22;39234;53.158;6.322;2023-07-13T04:28:12;14.80;99.90
53152;DHT22;39234;53.158;6.322;2023-07-13T04:30:38;14.80;99.90
53152;DHT22;39234;53.158;6.322;2023-07-13T04:33:03;14.90;99.90
53152;DHT22;39234;53.158;6.322;2023-07-13T04:35:30;14.90;99.90
53152;DHT22;39234;53.158;6.322;2023-07-13T04:37:56;15.00;99.90
53152;DHT22;39234;53.158;6.322;2023-07-13T04:40:22;15.10;99.90
53152;DHT22;39234;53.158;6.322;2023-07-13T04:42:48;15.00;99.90
53152;DHT22;39234;53.158;6.322;2023-07-13T04:45:14;15.20;99.90
53152;DHT22;39234;53.158;6.322;2023-07-13T04:47:41;15.10;99.90
53152;DHT22;39234;53.158;6.322;2023-07-13T04:50:07;15.50;99.90
53152;DHT22;39234;53.158;6.322;2023-07-13T04:52:33;15.40;99.90
53152;DHT22;39234;53.158;6.322;2023-07-13T04:55:00;15.30;99.90
53152;DHT22;39234;53.158;6.322;2023-07-13T04:57:26;15.40;99.90
53152;DHT22;39234;53.158;6.322;2023-07-13T04:59:52;15.50;99.90
53152;DHT22;39234;53.158;6.322;2023-07-13T05:02:20;15.40;99.90
53152;DHT22;39234;53.158;6.322;2023-07-13T05:04:47;15.60;99.90
53152;DHT22;39234;53.158;6.322;2023-07-13T05:07:13;15.50;99.90
53152;DHT22;39234;53.158;6.322;2023-07-13T05:09:39;15.70;99.90
53152;DHT22;39234;53.158;6.322;2023-07-13T05:12:07;15.60;99.90
53152;DHT22;39234;53.158;6.322;2023-07-13T05:14:33;15.80;99.90
53152;DHT22;39234;53.158;6.322;2023-07-13T05:16:58;15.80;99.90
53152;DHT22;39234;53.158;6.322;2023-07-13T05:19:24;16.00;99.90
53152;DHT22;39234;53.158;6.322;2023-07-13T05:21:50;15.90;99.90
53152;DHT22;39234;53.158;6.322;2023-07-13T05:24:16;16.10;99.90
53152;DHT22;39234;53.158;6.322;2023-07-13T05:26:42;16.10;99.90
53152;DHT22;39234;53.158;6.322;2023-07-13T05:29:07;16.20;99.90
53152;DHT22;39234;53.158;6.322;2023-07-13T05:31:33;16.30;99.90
53152;DHT22;39234;53.158;6.322;2023-07-13T05:33:59;16.30;99.90
53152;DHT22;39234;53.158;6.322;2023-07-13T05:36:24;16.20;99.90
53152;DHT22;39234;53.158;6.322;2023-07-13T05:38:50;16.40;99.90
53152;DHT22;39234;53.158;6.322;2023-07-13T05:41:16;15.00;99.90
53152;DHT22;39234;53.158;6.322;2023-07-13T05:43:42;16.70;99.90
53152;DHT22;39234;53.158;6.322;2023-07-13T05:46:07;16.70;99.90
53152;DHT22;39234;53.158;6.322;2023-07-13T05:48:33;16.80;99.90
53152;DHT22;39234;53.158;6.322;2023-07-13T05:50:58;16.90;99.90
53152;DHT22;39234;53.158;6.322;2023-07-13T05:53:24;16.90;99.90
53152;DHT22;39234;53.158;6.322;2023-07-13T05:55:50;16.80;99.90
53152;DHT22;39234;53.158;6.322;2023-07-13T05:58:17;16.90;99.90
53152;DHT22;39234;53.158;6.322;2023-07-13T06:00:43;17.20;99.90
53152;DHT22;39234;53.158;6.322;2023-07-13T06:03:08;17.30;99.90
53152;DHT22;39234;53.158;6.322;2023-07-13T06:05:36;17.20;99.90
53152;DHT22;39234;53.158;6.322;2023-07-13T06:08:02;17.30;99.90
53152;DHT22;39234;53.158;6.322;2023-07-13T06:10:28;17.30;99.90
53152;DHT22;39234;53.158;6.322;2023-07-13T06:12:54;17.70;99.90
53152;DHT22;39234;53.158;6.322;2023-07-13T06:15:19;17.80;99.90
53152;DHT22;39234;53.158;6.322;2023-07-13T06:17:45;17.70;99.90
53152;DHT22;39234;53.158;6.322;2023-07-13T06:20:12;17.80;99.90
53152;DHT22;39234;53.158;6.322;2023-07-13T06:22:38;18.10;99.90
53152;DHT22;39234;53.158;6.322;2023-07-13T06:25:03;18.00;99.90
53152;DHT22;39234;53.158;6.322;2023-07-13T06:27:29;18.00;99.90
53152;DHT22;39234;53.158;6.322;2023-07-13T06:29:55;18.30;99.90
53152;DHT22;39234;53.158;6.322;2023-07-13T06:32:21;18.40;99.90
53152;DHT22;39234;53.158;6.322;2023-07-13T06:34:46;18.90;99.90
53152;DHT22;39234;53.158;6.322;2023-07-13T06:37:12;19.00;99.90
53152;DHT22;39234;53.158;6.322;2023-07-13T06:39:38;18.80;99.90
53152;DHT22;39234;53.158;6.322;2023-07-13T06:42:04;18.60;99.90
53152;DHT22;39234;53.158;6.322;2023-07-13T06:44:30;18.50;99.90
53152;DHT22;39234;53.158;6.322;2023-07-13T06:46:56;18.60;99.90
53152;DHT22;39234;53.158;6.322;2023-07-13T06:49:22;18.90;99.90
53152;DHT22;39234;53.158;6.322;2023-07-13T06:51:47;19.00;99.90
53152;DHT22;39234;53.158;6.322;2023-07-13T06:54:13;18.90;99.90
53152;DHT22;39234;53.158;6.322;2023-07-13T06:56:39;16.60;99.90
53152;DHT22;39234;53.158;6.322;2023-07-13T06:59:05;18.40;99.90
53152;DHT22;39234;53.158;6.322;2023-07-13T07:01:30;18.30;99.90
53152;DHT22;39234;53.158;6.322;2023-07-13T07:03:56;17.80;99.90
53152;DHT22;39234;53.158;6.322;2023-07-13T07:06:23;17.60;99.90
53152;DHT22;39234;53.158;6.322;2023-07-13T07:08:50;17.70;99.90
53152;DHT22;39234;53.158;6.322;2023-07-13T07:11:24;17.20;99.90
53152;DHT22;39234;53.158;6.322;2023-07-13T07:13:51;17.40;99.90
53152;DHT22;39234;53.158;6.322;2023-07-13T07:16:17;17.30;99.90
53152;DHT22;39234;53.158;6.322;2023-07-13T07:18:44;17.20;99.90
53152;DHT22;39234;53.158;6.322;2023-07-13T07:21:10;17.20;99.90
53152;DHT22;39234;53.158;6.322;2023-07-13T07:23:36;17.00;99.90
53152;DHT22;39234;53.158;6.322;2023-07-13T07:26:02;17.00;99.90
53152;DHT22;39234;53.158;6.322;2023-07-13T07:28:28;17.60;99.90
53152;DHT22;39234;53.158;6.322;2023-07-13T07:30:56;18.80;99.90
53152;DHT22;39234;53.158;6.322;2023-07-13T07:33:22;19.90;99.90
53152;DHT22;39234;53.158;6.322;2023-07-13T07:35:48;19.90;99.90
53152;DHT22;39234;53.158;6.322;2023-07-13T07:38:14;19.80;99.90
53152;DHT22;39234;53.158;6.322;2023-07-13T07:40:41;18.30;99.90
53152;DHT22;39234;53.158;6.322;2023-07-13T07:43:08;18.60;99.90
53152;DHT22;39234;53.158;6.322;2023-07-13T07:45:34;18.50;99.90
53152;DHT22;39234;53.158;6.322;2023-07-13T07:47:59;18.10;99.90
53152;DHT22;39234;53.158;6.322;2023-07-13T07:50:27;17.40;99.90
53152;DHT22;39234;53.158;6.322;2023-07-13T07:52:53;16.90;99.90
53152;DHT22;39234;53.158;6.322;2023-07-13T07:55:22;16.80;99.90
53152;DHT22;39234;53.158;6.322;2023-07-13T07:57:48;16.70;99.90
53152;DHT22;39234;53.158;6.322;2023-07-13T08:00:15;16.70;99.90
53152;DHT22;39234;53.158;6.322;2023-07-13T08:02:41;16.80;99.90
53152;DHT22;39234;53.158;6.322;2023-07-13T08:05:08;17.20;99.90
53152;DHT22;39234;53.158;6.322;2023-07-13T08:07:35;17.80;99.90
53152;DHT22;39234;53.158;6.322;2023-07-13T08:10:01;18.30;99.90
53152;DHT22;39234;53.158;6.322;2023-07-13T08:12:27;18.70;99.90
53152;DHT22;39234;53.158;6.322;2023-07-13T08:14:53;19.00;99.90
53152;DHT22;39234;53.158;6.322;2023-07-13T08:17:26;19.40;99.90
53152;DHT22;39234;53.158;6.322;2023-07-13T08:19:52;20.30;99.90
53152;DHT22;39234;53.158;6.322;2023-07-13T08:22:17;21.20;99.90
53152;DHT22;39234;53.158;6.322;2023-07-13T08:24:43;21.40;99.90
53152;DHT22;39234;53.158;6.322;2023-07-13T08:27:11;20.80;99.90
53152;DHT22;39234;53.158;6.322;2023-07-13T08:29:37;20.80;99.90
53152;DHT22;39234;53.158;6.322;2023-07-13T08:32:05;20.40;99.90
53152;DHT22;39234;53.158;6.322;2023-07-13T08:34:31;20.70;99.90
53152;DHT22;39234;53.158;6.322;2023-07-13T08:36:57;21.20;99.90
53152;DHT22;39234;53.158;6.322;2023-07-13T08:39:23;21.70;99.90
53152;DHT22;39234;53.158;6.322;2023-07-13T08:41:53;22.00;99.90
53152;DHT22;39234;53.158;6.322;2023-07-13T08:44:27;21.30;99.90
53152;DHT22;39234;53.158;6.322;2023-07-13T08:46:58;21.10;99.90
53152;DHT22;39234;53.158;6.322;2023-07-13T08:49:25;20.60;99.90
53152;DHT22;39234;53.158;6.322;2023-07-13T08:54:34;20.10;99.90
53152;DHT22;39234;53.158;6.322;2023-07-13T08:57:03;19.90;99.90
53152;DHT22;39234;53.158;6.322;2023-07-13T08:59:35;20.00;99.90
53152;DHT22;39234;53.158;6.322;2023-07-13T09:04:37;20.80;99.90
53152;DHT22;39234;53.158;6.322;2023-07-13T09:13:00;23.00;99.90
53152;DHT22;39234;53.158;6.322;2023-07-13T09:15:31;23.60;99.90
53152;DHT22;39234;53.158;6.322;2023-07-13T09:21:11;23.00;99.90
53152;DHT22;39234;53.158;6.322;2023-07-13T09:23:39;23.00;99.90
53152;DHT22;39234;53.158;6.322;2023-07-13T09:26:20;23.20;99.90
53152;DHT22;39234;53.158;6.322;2023-07-13T09:28:48;23.20;99.90
53152;DHT22;39234;53.158;6.322;2023-07-13T09:33:47;22.20;99.90
53152;DHT22;39234;53.158;6.322;2023-07-13T09:36:22;21.80;99.90
53152;DHT22;39234;53.158;6.322;2023-07-13T09:39:02;21.20;99.90
53152;DHT22;39234;53.158;6.322;2023-07-13T09:47:22;21.30;99.90
53152;DHT22;39234;53.158;6.322;2023-07-13T09:52:21;21.90;99.90
53152;DHT22;39234;53.158;6.322;2023-07-13T09:54:49;21.70;99.90
53152;DHT22;39234;53.158;6.322;2023-07-13T09:57:18;21.50;99.90
53152;DHT22;39234;53.158;6.322;2023-07-13T09:59:47;21.60;99.90
53152;DHT22;39234;53.158;6.322;2023-07-13T10:02:31;21.90;99.90
53152;DHT22;39234;53.158;6.322;2023-07-13T10:05:04;22.10;99.90
53152;DHT22;39234;53.158;6.322;2023-07-13T10:07:31;22.00;99.90
53152;DHT22;39234;53.158;6.322;2023-07-13T10:09:59;22.20;99.90
53152;DHT22;39234;53.158;6.322;2023-07-13T10:12:30;21.90;99.90
53152;DHT22;39234;53.158;6.322;2023-07-13T10:15:02;21.70;99.90
53152;DHT22;39234;53.158;6.322;2023-07-13T10:17:31;21.80;99.90
53152;DHT22;39234;53.158;6.322;2023-07-13T10:20:03;21.80;99.90
53152;DHT22;39234;53.158;6.322;2023-07-13T10:25:18;22.60;99.90
53152;DHT22;39234;53.158;6.322;2023-07-13T10:27:44;22.70;99.90
53152;DHT22;39234;53.158;6.322;2023-07-13T10:30:24;22.80;99.90
53152;DHT22;39234;53.158;6.322;2023-07-13T10:32:58;23.40;99.90
53152;DHT22;39234;53.158;6.322;2023-07-13T10:35:27;23.30;99.90
53152;DHT22;39234;53.158;6.322;2023-07-13T10:38:03;23.30;99.90
53152;DHT22;39234;53.158;6.322;2023-07-13T10:40:47;22.80;99.90
53152;DHT22;39234;53.158;6.322;2023-07-13T10:43:18;22.60;99.90
53152;DHT22;39234;53.158;6.322;2023-07-13T10:45:46;22.40;99.90
53152;DHT22;39234;53.158;6.322;2023-07-13T10:48:16;22.60;99.90
53152;DHT22;39234;53.158;6.322;2023-07-13T10:50:45;23.00;99.90
53152;DHT22;39234;53.158;6.322;2023-07-13T10:53:35;23.20;99.90
53152;DHT22;39234;53.158;6.322;2023-07-13T10:56:02;23.50;99.90
53152;DHT22;39234;53.158;6.322;2023-07-13T10:58:39;23.60;99.90
53152;DHT22;39234;53.158;6.322;2023-07-13T11:01:14;23.70;99.90
53152;DHT22;39234;53.158;6.322;2023-07-13T11:13:56;23.50;99.90
53152;DHT22;39234;53.158;6.322;2023-07-13T11:18:51;23.10;99.90
53152;DHT22;39234;53.158;6.322;2023-07-13T11:21:26;22.90;99.90
53152;DHT22;39234;53.158;6.322;2023-07-13T11:24:04;22.90;99.90
53152;DHT22;39234;53.158;6.322;2023-07-13T11:26:51;23.30;99.90
53152;DHT22;39234;53.158;6.322;2023-07-13T11:29:32;23.40;99.90
53152;DHT22;39234;53.158;6.322;2023-07-13T11:32:00;23.60;99.90
53152;DHT22;39234;53.158;6.322;2023-07-13T11:34:38;23.70;99.90
53152;DHT22;39234;53.158;6.322;2023-07-13T11:37:11;23.20;99.90
53152;DHT22;39234;53.158;6.322;2023-07-13T11:39:41;22.80;99.90
53152;DHT22;39234;53.158;6.322;2023-07-13T11:42:17;22.20;99.90
53152;DHT22;39234;53.158;6.322;2023-07-13T11:44:50;22.60;99.90
53152;DHT22;39234;53.158;6.322;2023-07-13T11:47:22;22.60;99.90
53152;DHT22;39234;53.158;6.322;2023-07-13T11:49:53;22.60;99.90
53152;DHT22;39234;53.158;6.322;2023-07-13T11:52:25;22.50;99.90
53152;DHT22;39234;53.158;6.322;2023-07-13T11:54:55;22.50;99.90
53152;DHT22;39234;53.158;6.322;2023-07-13T11:57:28;22.60;99.90
53152;DHT22;39234;53.158;6.322;2023-07-13T11:59:55;22.70;99.90
53152;DHT22;39234;53.158;6.322;2023-07-13T12:02:43;22.40;99.90
53152;DHT22;39234;53.158;6.322;2023-07-13T12:05:12;22.70;99.90
53152;DHT22;39234;53.158;6.322;2023-07-13T12:07:39;22.80;99.90
53152;DHT22;39234;53.158;6.322;2023-07-13T12:10:28;22.60;99.90
53152;DHT22;39234;53.158;6.322;2023-07-13T12:12:57;22.90;99.90
53152;DHT22;39234;53.158;6.322;2023-07-13T12:15:48;23.10;99.90
53152;DHT22;39234;53.158;6.322;2023-07-13T12:18:23;23.00;99.90
53152;DHT22;39234;53.158;6.322;2023-07-13T12:20:56;23.00;99.90
53152;DHT22;39234;53.158;6.322;2023-07-13T12:23:24;23.10;99.90
53152;DHT22;39234;53.158;6.322;2023-07-13T12:25:53;23.00;99.90
53152;DHT22;39234;53.158;6.322;2023-07-13T12:28:34;23.40;99.90
53152;DHT22;39234;53.158;6.322;2023-07-13T12:31:03;23.30;99.90
53152;DHT22;39234;53.158;6.322;2023-07-13T12:33:30;23.50;99.90
53152;DHT22;39234;53.158;6.322;2023-07-13T12:35:57;23.30;99.90
53152;DHT22;39234;53.158;6.322;2023-07-13T12:38:25;22.90;99.90
53152;DHT22;39234;53.158;6.322;2023-07-13T12:40:52;22.60;99.90
53152;DHT22;39234;53.158;6.322;2023-07-13T12:43:20;22.40;99.90
53152;DHT22;39234;53.158;6.322;2023-07-13T12:46:02;22.70;99.90
53152;DHT22;39234;53.158;6.322;2023-07-13T12:48:29;23.00;99.90
53152;DHT22;39234;53.158;6.322;2023-07-13T12:50:55;23.20;99.90
53152;DHT22;39234;53.158;6.322;2023-07-13T12:53:29;23.30;99.90
53152;DHT22;39234;53.158;6.322;2023-07-13T12:56:02;23.30;99.90
53152;DHT22;39234;53.158;6.322;2023-07-13T12:58:36;22.90;99.90
53152;DHT22;39234;53.158;6.322;2023-07-13T13:01:03;22.50;99.90
53152;DHT22;39234;53.158;6.322;2023-07-13T13:03:31;22.70;99.90
53152;DHT22;39234;53.158;6.322;2023-07-13T13:08:33;22.90;99.90
53152;DHT22;39234;53.158;6.322;2023-07-13T13:11:01;23.20;99.90
53152;DHT22;39234;53.158;6.322;2023-07-13T13:13:27;23.50;99.90
53152;DHT22;39234;53.158;6.322;2023-07-13T13:15:53;23.20;99.90
53152;DHT22;39234;53.158;6.322;2023-07-13T13:18:22;23.50;99.90
53152;DHT22;39234;53.158;6.322;2023-07-13T13:20:49;23.50;99.90
53152;DHT22;39234;53.158;6.322;2023-07-13T13:23:17;23.40;99.90
53152;DHT22;39234;53.158;6.322;2023-07-13T13:25:48;23.30;99.90
53152;DHT22;39234;53.158;6.322;2023-07-13T13:28:15;23.40;99.90
53152;DHT22;39234;53.158;6.322;2023-07-13T13:30:43;23.60;99.90
53152;DHT22;39234;53.158;6.322;2023-07-13T13:33:13;23.80;99.90
53152;DHT22;39234;53.158;6.322;2023-07-13T13:35:40;23.50;99.90
53152;DHT22;39234;53.158;6.322;2023-07-13T13:38:14;23.60;99.90
53152;DHT22;39234;53.158;6.322;2023-07-13T13:40:44;23.70;99.90
53152;DHT22;39234;53.158;6.322;2023-07-13T13:43:17;24.00;99.90
53152;DHT22;39234;53.158;6.322;2023-07-13T13:45:43;24.00;99.90
53152;DHT22;39234;53.158;6.322;2023-07-13T13:48:18;23.80;99.90
53152;DHT22;39234;53.158;6.322;2023-07-13T13:50:44;23.90;99.90
53152;DHT22;39234;53.158;6.322;2023-07-13T13:53:11;23.60;99.90
53152;DHT22;39234;53.158;6.322;2023-07-13T13:55:38;23.30;99.90
53152;DHT22;39234;53.158;6.322;2023-07-13T13:58:04;22.90;99.90
53152;DHT22;39234;53.158;6.322;2023-07-13T14:00:30;22.90;99.90
53152;DHT22;39234;53.158;6.322;2023-07-13T14:02:56;22.90;99.90
53152;DHT22;39234;53.158;6.322;2023-07-13T14:05:24;24.70;99.90
53152;DHT22;39234;53.158;6.322;2023-07-13T14:07:52;22.80;99.90
53152;DHT22;39234;53.158;6.322;2023-07-13T14:10:19;23.00;99.90
53152;DHT22;39234;53.158;6.322;2023-07-13T14:12:53;23.10;99.90
53152;DHT22;39234;53.158;6.322;2023-07-13T14:15:27;22.80;99.90
53152;DHT22;39234;53.158;6.322;2023-07-13T14:17:54;22.80;99.90
53152;DHT22;39234;53.158;6.322;2023-07-13T14:20:22;22.90;99.90
53152;DHT22;39234;53.158;6.322;2023-07-13T14:22:52;20.80;99.90
53152;DHT22;39234;53.158;6.322;2023-07-13T14:25:20;22.80;99.90
53152;DHT22;39234;53.158;6.322;2023-07-13T14:27:49;22.70;99.90
53152;DHT22;39234;53.158;6.322;2023-07-13T14:30:19;23.10;99.90
53152;DHT22;39234;53.158;6.322;2023-07-13T14:32:46;22.90;99.90
53152;DHT22;39234;53.158;6.322;2023-07-13T14:35:13;23.00;99.90
53152;DHT22;39234;53.158;6.322;2023-07-13T14:37:43;23.00;99.90
53152;DHT22;39234;53.158;6.322;2023-07-13T14:40:28;23.10;99.90
53152;DHT22;39234;53.158;6.322;2023-07-13T14:42:54;23.20;99.90
53152;DHT22;39234;53.158;6.322;2023-07-13T14:45:20;23.60;99.90
53152;DHT22;39234;53.158;6.322;2023-07-13T14:47:46;23.20;99.90
53152;DHT22;39234;53.158;6.322;2023-07-13T14:50:15;23.20;99.90
53152;DHT22;39234;53.158;6.322;2023-07-13T14:52:42;22.90;99.90
53152;DHT22;39234;53.158;6.322;2023-07-13T14:55:16;22.50;99.90
53152;DHT22;39234;53.158;6.322;2023-07-13T14:57:42;22.50;99.90
53152;DHT22;39234;53.158;6.322;2023-07-13T15:00:19;22.10;99.90
53152;DHT22;39234;53.158;6.322;2023-07-13T15:02:49;21.90;99.90
53152;DHT22;39234;53.158;6.322;2023-07-13T15:05:20;21.90;99.90
53152;DHT22;39234;53.158;6.322;2023-07-13T15:07:49;22.10;99.90
53152;DHT22;39234;53.158;6.322;2023-07-13T15:10:20;22.10;99.90
53152;DHT22;39234;53.158;6.322;2023-07-13T15:12:46;21.90;99.90
53152;DHT22;39234;53.158;6.322;2023-07-13T15:15:13;21.80;99.90
53152;DHT22;39234;53.158;6.322;2023-07-13T15:17:44;22.00;99.90
53152;DHT22;39234;53.158;6.322;2023-07-13T15:20:31;22.30;99.90
53152;DHT22;39234;53.158;6.322;2023-07-13T15:22:58;22.40;99.90
53152;DHT22;39234;53.158;6.322;2023-07-13T15:25:26;22.50;99.90
53152;DHT22;39234;53.158;6.322;2023-07-13T15:27:53;22.50;99.90
53152;DHT22;39234;53.158;6.322;2023-07-13T15:30:19;22.40;99.90
53152;DHT22;39234;53.158;6.322;2023-07-13T15:32:45;22.20;99.90
53152;DHT22;39234;53.158;6.322;2023-07-13T15:35:20;20.40;99.90
53152;DHT22;39234;53.158;6.322;2023-07-13T15:37:47;22.40;99.90
53152;DHT22;39234;53.158;6.322;2023-07-13T15:40:14;22.00;99.90
53152;DHT22;39234;53.158;6.322;2023-07-13T15:42:44;22.00;99.90
53152;DHT22;39234;53.158;6.322;2023-07-13T15:45:30;21.90;99.90
53152;DHT22;39234;53.158;6.322;2023-07-13T15:47:56;21.80;99.90
53152;DHT22;39234;53.158;6.322;2023-07-13T15:50:24;22.10;99.90
53152;DHT22;39234;53.158;6.322;2023-07-13T15:52:54;22.00;99.90
53152;DHT22;39234;53.158;6.322;2023-07-13T15:55:21;22.10;99.90
53152;DHT22;39234;53.158;6.322;2023-07-13T15:57:52;21.80;99.90
53152;DHT22;39234;53.158;6.322;2023-07-13T16:00:23;22.50;99.90
53152;DHT22;39234;53.158;6.322;2023-07-13T16:02:49;21.70;99.90
53152;DHT22;39234;53.158;6.322;2023-07-13T16:05:17;21.90;99.90
53152;DHT22;39234;53.158;6.322;2023-07-13T16:07:47;21.80;99.90
53152;DHT22;39234;53.158;6.322;2023-07-13T16:10:30;22.10;99.90
53152;DHT22;39234;53.158;6.322;2023-07-13T16:12:57;21.60;99.90
53152;DHT22;39234;53.158;6.322;2023-07-13T16:15:24;21.30;99.90
53152;DHT22;39234;53.158;6.322;2023-07-13T16:17:50;21.50;99.90
53152;DHT22;39234;53.158;6.322;2023-07-13T16:20:17;21.50;99.90